Terminal Aerodrome Forecast
Issued by NWS Duluth, MN

Home | Current Version | Previous Version | Text Only | Print | Product List | Glossary On
Versions: 1 2 3 4 5 6 7 8 9 10 11 12 13 14 15 16 17 18 19 20 21 22 23 24 25 26 27 28 29 30 31 32
000
FTUS43 KDLH 290702 AAG
TAFDLH
TAF AMD
KDLH 290702Z 2907/3006 VRB03KT 4SM BR SCT002
      TEMPO 2907/2909 1/2SM FG OVC002
     FM291200 30005KT P6SM SCT050 BKN100
     FM291600 31008KT P6SM VCSH SCT040 BKN100
     FM291900 33010KT P6SM VCTS BKN040CB
     FM300400 05010KT P6SM VCTS BKN050CB=

USA.gov is the U.S. government's official web portal to all federal, state and local government web resources and services.